Enter the Airport ICAO Code

Search by Airport or City

Current Weather

LEGR | Federico García Lorca Airport (Granada Jaén Airport)

Granada, Andalusia, Spain

Last Update 24 Minutes Ago

Clear Sky

Temperature of 15 ºC

Moderate Winds from South

Temperature

15 ºC

Dew Point Temperature

01 ºC Below Zero

Relative Humidity

33.43 %

Wind Direction

South (190º, Ranging from 140º to 240º)

Wind Velocity

20 km/h (11 kt)

Gusts

None

Visibility

No Significant Reductions

Sea Level Pressure

1007 hPa (Hectopascals)

Layers of Clouds

None

METAR LEGR 160700Z 19011KT 140V240 CAVOK 15/M01 Q1007

Weather Forecast

LEGR | Federico García Lorca Airport (Granada Jaén Airport)

Granada, Andalusia, Spain

Forecast valid for the next 20 Hours

From now on it is expected:

Clear Sky

Light to Moderate Winds from South

Maximum Temperature

19 ºC in 8 Hours

Minimum Temperature

05 ºC in 0 Hours

TAF LEGR 160200Z 1603/1703 16009KT CAVOK TX19/1615Z TN05/1607Z